createdAt,value
2022-08-17T00:00:43.930Z,22.84
2022-08-17T00:03:19.693Z,22.87
2022-08-17T00:05:52.761Z,22.74
2022-08-17T00:08:25.490Z,22.75
2022-08-17T00:10:54.203Z,22.76
2022-08-17T00:13:26.085Z,22.76
2022-08-17T00:15:57.187Z,22.75
2022-08-17T00:19:06.680Z,22.59
2022-08-17T00:21:13.921Z,22.77
2022-08-17T00:23:44.285Z,22.58
2022-08-17T00:26:15.512Z,22.58
2022-08-17T00:29:04.873Z,22.57
2022-08-17T00:31:32.535Z,22.60
2022-08-17T00:33:59.954Z,22.58
2022-08-17T00:36:27.451Z,22.59
2022-08-17T00:38:54.971Z,22.54
2022-08-17T00:41:26.297Z,22.66
2022-08-17T00:43:56.684Z,22.82
2022-08-17T00:46:28.799Z,22.84
2022-08-17T00:48:56.510Z,22.90
2022-08-17T00:51:30.859Z,22.82
2022-08-17T00:54:03.202Z,22.47
2022-08-17T00:56:33.399Z,22.47
2022-08-17T00:59:02.498Z,22.36
2022-08-17T01:01:32.509Z,22.43
2022-08-17T01:04:00.924Z,22.23
2022-08-17T01:06:29.784Z,22.32
2022-08-17T01:08:59.689Z,22.21
2022-08-17T01:11:27.925Z,22.27
2022-08-17T01:13:55.353Z,22.12
2022-08-17T01:16:26.799Z,22.28
2022-08-17T01:18:58.524Z,22.47
2022-08-17T01:21:31.855Z,22.35
2022-08-17T01:24:01.234Z,22.53
2022-08-17T01:26:32.080Z,22.42
2022-08-17T01:29:00.073Z,22.65
2022-08-17T01:31:33.012Z,23.25
2022-08-17T01:34:03.261Z,23.96
2022-08-17T01:36:30.721Z,24.15
2022-08-17T01:38:58.116Z,22.89
2022-08-17T01:41:28.454Z,22.75
2022-08-17T01:44:02.784Z,22.54
2022-08-17T01:46:33.615Z,22.57
2022-08-17T01:49:01.801Z,22.79
2022-08-17T01:51:31.897Z,22.71
2022-08-17T01:54:02.470Z,22.94
2022-08-17T01:56:34.290Z,22.93
2022-08-17T01:59:01.965Z,22.52
2022-08-17T02:01:31.472Z,22.53
2022-08-17T02:04:01.145Z,22.51
2022-08-17T02:06:31.330Z,22.40
2022-08-17T02:09:16.629Z,22.69
2022-08-17T02:11:46.387Z,22.77
2022-08-17T02:14:14.362Z,22.73
2022-08-17T02:16:41.992Z,22.77
2022-08-17T02:19:15.965Z,22.71
2022-08-17T02:21:45.144Z,22.56
2022-08-17T02:24:58.202Z,22.53
2022-08-17T02:27:09.593Z,22.34
2022-08-17T02:29:37.085Z,22.48
2022-08-17T02:32:05.237Z,22.27
2022-08-17T02:34:32.733Z,22.53
2022-08-17T02:37:00.138Z,22.69
2022-08-17T02:39:27.562Z,22.84
2022-08-17T02:42:01.035Z,22.14
2022-08-17T02:44:39.220Z,22.48
2022-08-17T02:47:09.118Z,22.55
2022-08-17T02:49:36.916Z,22.72
2022-08-17T02:52:06.447Z,22.76
2022-08-17T02:54:39.888Z,22.28
2022-08-17T02:57:10.458Z,21.96
2022-08-17T02:59:39.931Z,21.81
2022-08-17T03:02:09.915Z,21.60
2022-08-17T03:04:37.901Z,21.69
2022-08-17T03:07:05.656Z,21.65
2022-08-17T03:09:33.330Z,21.85
2022-08-17T03:12:05.285Z,21.75
2022-08-17T03:14:32.671Z,21.45
2022-08-17T03:17:01.477Z,21.69
2022-08-17T03:19:28.838Z,21.84
2022-08-17T03:21:58.277Z,21.92
2022-08-17T03:24:28.864Z,21.47
2022-08-17T03:26:56.446Z,21.78
2022-08-17T03:29:24.304Z,21.53
2022-08-17T03:31:51.698Z,21.81
2022-08-17T03:34:20.537Z,21.92
2022-08-17T03:36:47.908Z,21.70
2022-08-17T03:39:15.345Z,21.72
2022-08-17T03:41:42.756Z,21.70
2022-08-17T03:44:10.182Z,21.63
2022-08-17T03:46:37.570Z,21.40
2022-08-17T03:49:06.707Z,21.29
2022-08-17T03:51:35.522Z,21.59
2022-08-17T03:54:03.016Z,21.90
2022-08-17T03:56:35.514Z,21.77
2022-08-17T03:59:02.902Z,21.67
2022-08-17T04:01:30.376Z,21.69
2022-08-17T04:03:57.846Z,21.41
2022-08-17T04:06:25.293Z,21.68
2022-08-17T04:08:54.141Z,21.87
2022-08-17T04:11:21.573Z,21.78
2022-08-17T04:13:48.964Z,22.07
2022-08-17T04:16:16.389Z,21.54
2022-08-17T04:18:43.794Z,21.76
2022-08-17T04:21:11.302Z,21.72
2022-08-17T04:23:38.733Z,21.55
2022-08-17T04:26:07.677Z,21.59
2022-08-17T04:28:35.088Z,21.49
2022-08-17T04:31:02.504Z,21.44
2022-08-17T04:33:30.492Z,21.43
2022-08-17T04:35:59.954Z,21.27
2022-08-17T04:38:30.834Z,21.34
2022-08-17T04:41:00.090Z,21.51
2022-08-17T04:43:30.827Z,21.82
2022-08-17T04:46:00.385Z,21.61
2022-08-17T04:48:36.138Z,21.46
2022-08-17T04:51:07.753Z,21.58
2022-08-17T04:53:35.310Z,21.24
2022-08-17T04:56:02.811Z,21.86
2022-08-17T04:58:32.197Z,21.84
2022-08-17T05:00:59.952Z,21.54
2022-08-17T05:03:28.083Z,21.71
2022-08-17T05:05:56.068Z,21.44
2022-08-17T05:08:23.588Z,21.50
2022-08-17T05:10:50.984Z,21.41
2022-08-17T05:13:20.709Z,21.20
2022-08-17T05:15:49.889Z,21.51
2022-08-17T05:18:17.739Z,21.51
2022-08-17T05:20:45.524Z,21.34
2022-08-17T05:23:16.146Z,21.52
2022-08-17T05:25:47.403Z,21.19
2022-08-17T05:28:16.155Z,21.55
2022-08-17T05:30:44.589Z,21.62
2022-08-17T05:33:15.424Z,21.66
2022-08-17T05:35:45.067Z,21.47
2022-08-17T05:38:12.085Z,21.52
2022-08-17T05:40:39.836Z,21.75
2022-08-17T05:43:11.284Z,21.89
2022-08-17T05:45:54.856Z,21.65
2022-08-17T05:48:35.562Z,21.47
2022-08-17T05:51:43.316Z,21.78
2022-08-17T05:54:37.627Z,21.53
2022-08-17T05:57:20.885Z,21.86
2022-08-17T05:59:58.325Z,21.59
2022-08-17T06:02:48.366Z,21.42
2022-08-17T06:05:38.952Z,21.59
2022-08-17T06:08:15.425Z,21.60
2022-08-17T06:10:47.387Z,21.99
2022-08-17T06:13:31.583Z,22.03
2022-08-17T06:16:04.722Z,21.44
2022-08-17T06:18:57.474Z,21.83
2022-08-17T06:21:30.399Z,21.68
2022-08-17T06:24:06.765Z,22.26
2022-08-17T06:26:42.757Z,21.21
2022-08-17T06:29:21.087Z,21.58
2022-08-17T06:31:48.487Z,21.30
2022-08-17T06:34:15.999Z,21.92
2022-08-17T06:36:51.420Z,21.47
2022-08-17T06:39:40.059Z,21.35
2022-08-17T06:42:54.883Z,21.85
2022-08-17T06:45:10.871Z,21.77
2022-08-17T06:47:53.048Z,21.98
2022-08-17T06:50:25.776Z,21.82
2022-08-17T06:52:58.483Z,21.62
2022-08-17T06:55:37.310Z,21.50
2022-08-17T06:58:15.954Z,21.69
2022-08-17T07:00:46.986Z,22.20
2022-08-17T07:03:26.556Z,22.04
2022-08-17T07:05:57.019Z,22.01
2022-08-17T07:08:34.626Z,21.99
2022-08-17T07:11:05.338Z,21.79
2022-08-17T07:13:42.342Z,21.74
2022-08-17T07:16:17.933Z,22.16
2022-08-17T07:18:45.908Z,22.41
2022-08-17T07:21:22.941Z,22.19
2022-08-17T07:24:28.110Z,22.16
2022-08-17T07:27:10.235Z,21.99
2022-08-17T07:29:41.849Z,21.75
2022-08-17T07:32:11.584Z,21.78
2022-08-17T07:34:57.099Z,21.84
2022-08-17T07:37:24.463Z,22.07
2022-08-17T07:40:14.920Z,22.02
2022-08-17T07:42:44.926Z,21.94
2022-08-17T07:45:15.273Z,22.03
2022-08-17T07:47:50.228Z,21.89
2022-08-17T07:50:26.450Z,22.13
2022-08-17T07:52:53.868Z,22.16
2022-08-17T07:55:31.608Z,21.89
2022-08-17T07:57:59.682Z,22.05
2022-08-17T08:00:32.704Z,22.07
2022-08-17T08:03:04.847Z,22.09
2022-08-17T08:05:49.744Z,21.96
2022-08-17T08:08:30.021Z,22.03
2022-08-17T08:11:03.908Z,21.96
2022-08-17T08:13:32.585Z,22.10
2022-08-17T08:16:21.074Z,21.95
2022-08-17T08:18:55.517Z,21.96
2022-08-17T08:21:33.477Z,22.17
2022-08-17T08:24:18.130Z,22.30
2022-08-17T08:26:55.624Z,22.44
2022-08-17T08:29:31.891Z,22.28
2022-08-17T08:32:11.251Z,22.17
2022-08-17T08:35:02.217Z,22.11
2022-08-17T08:37:43.109Z,22.33
2022-08-17T08:40:28.543Z,22.13
2022-08-17T08:43:06.584Z,22.16
2022-08-17T08:45:47.035Z,22.14
2022-08-17T08:48:55.657Z,22.29
2022-08-17T08:51:26.040Z,22.08
2022-08-17T08:54:01.949Z,22.44
2022-08-17T08:56:36.874Z,22.13
2022-08-17T08:59:16.725Z,22.05
2022-08-17T09:01:56.103Z,22.08
2022-08-17T09:05:13.007Z,22.17
2022-08-17T09:07:44.418Z,22.03
2022-08-17T09:10:21.987Z,22.20
2022-08-17T09:13:09.330Z,22.08
2022-08-17T09:15:45.186Z,22.21
2022-08-17T09:19:00.203Z,22.15
2022-08-17T09:21:14.359Z,22.42
2022-08-17T09:23:50.944Z,22.12
2022-08-17T09:26:22.103Z,22.16
2022-08-17T09:28:52.142Z,22.14
2022-08-17T09:31:31.299Z,22.29
2022-08-17T09:34:03.686Z,22.55
2022-08-17T09:36:36.351Z,22.31
2022-08-17T09:39:08.387Z,22.45
2022-08-17T09:41:49.318Z,22.28
2022-08-17T09:44:25.222Z,22.34
2022-08-17T09:47:00.271Z,22.27
2022-08-17T09:49:32.760Z,22.38
2022-08-17T09:52:07.084Z,22.37
2022-08-17T09:54:39.969Z,22.43
2022-08-17T09:57:29.662Z,22.39
2022-08-17T10:00:12.506Z,22.33
2022-08-17T10:03:08.362Z,22.52
2022-08-17T10:05:43.435Z,22.34
2022-08-17T10:08:22.894Z,22.37
2022-08-17T10:11:01.924Z,22.69
2022-08-17T10:13:38.652Z,22.67
2022-08-17T10:16:15.496Z,22.84
2022-08-17T10:18:56.861Z,22.77
2022-08-17T10:21:26.030Z,22.71
2022-08-17T10:24:03.085Z,22.62
2022-08-17T10:26:43.053Z,22.66
2022-08-17T10:29:28.977Z,22.78
2022-08-17T10:32:00.144Z,22.67
2022-08-17T10:34:46.210Z,22.58
2022-08-17T10:37:38.770Z,22.60
2022-08-17T10:40:22.445Z,22.68
2022-08-17T10:42:56.869Z,22.73
2022-08-17T10:45:29.561Z,22.77
2022-08-17T10:48:05.358Z,22.66
2022-08-17T10:50:47.232Z,22.63
2022-08-17T10:53:46.698Z,22.58
2022-08-17T10:56:22.937Z,22.53
2022-08-17T10:58:52.362Z,22.53
2022-08-17T11:01:21.611Z,22.56
2022-08-17T11:03:51.079Z,22.67
2022-08-17T11:06:26.169Z,22.77
2022-08-17T11:09:31.570Z,22.57
2022-08-17T11:12:26.817Z,22.63
2022-08-17T11:15:17.821Z,22.49
2022-08-17T11:18:17.587Z,22.71
2022-08-17T11:21:21.941Z,22.64
2022-08-17T11:24:11.871Z,22.68
2022-08-17T11:26:41.189Z,22.81
2022-08-17T11:29:20.969Z,22.74
2022-08-17T11:32:01.987Z,22.68
2022-08-17T11:34:32.160Z,22.85
2022-08-17T11:37:27.706Z,22.96
2022-08-17T11:40:13.248Z,22.79
2022-08-17T11:42:52.724Z,22.85
2022-08-17T11:45:45.232Z,23.05
2022-08-17T11:48:28.563Z,22.94
2022-08-17T11:51:00.753Z,22.92
2022-08-17T11:54:21.583Z,22.98
2022-08-17T11:56:48.374Z,23.05
2022-08-17T11:59:51.485Z,22.86
2022-08-17T12:02:38.556Z,22.89
2022-08-17T12:05:27.501Z,22.93
2022-08-17T12:08:06.872Z,22.96
2022-08-17T12:10:36.602Z,23.10
2022-08-17T12:13:07.418Z,23.00
2022-08-17T12:15:37.670Z,23.32
2022-08-17T12:18:05.157Z,23.44
2022-08-17T12:20:34.583Z,23.14
2022-08-17T12:23:09.614Z,23.08
2022-08-17T12:25:43.148Z,23.11
2022-08-17T12:28:23.060Z,23.16
2022-08-17T12:30:52.090Z,23.28
2022-08-17T12:33:25.265Z,23.45
2022-08-17T12:35:59.650Z,23.61
2022-08-17T12:38:32.242Z,23.43
2022-08-17T12:41:01.338Z,23.44
2022-08-17T12:43:30.208Z,23.30
2022-08-17T12:45:59.696Z,23.09
2022-08-17T12:48:28.928Z,23.10
2022-08-17T12:51:01.226Z,22.94
2022-08-17T12:53:30.896Z,22.89
2022-08-17T12:55:59.095Z,23.05
2022-08-17T12:58:31.580Z,23.16
2022-08-17T13:01:02.348Z,23.17
2022-08-17T13:03:37.199Z,23.13
2022-08-17T13:06:06.647Z,23.32
2022-08-17T13:08:36.546Z,23.17
2022-08-17T13:11:07.495Z,23.17
2022-08-17T13:13:38.987Z,23.21
2022-08-17T13:16:14.974Z,23.27
2022-08-17T13:18:45.381Z,23.26
2022-08-17T13:21:23.180Z,23.18
2022-08-17T13:23:59.348Z,23.27
2022-08-17T13:26:31.652Z,23.17
2022-08-17T13:29:01.673Z,23.35
2022-08-17T13:31:41.400Z,23.25
2022-08-17T13:34:34.613Z,22.88
2022-08-17T13:37:35.436Z,23.10
2022-08-17T13:40:31.994Z,23.03
2022-08-17T13:42:59.423Z,22.91
2022-08-17T13:46:07.367Z,23.18
2022-08-17T13:48:34.940Z,23.42
2022-08-17T13:51:31.287Z,23.29
2022-08-17T13:54:02.843Z,23.31
2022-08-17T13:56:38.825Z,23.64
2022-08-17T13:59:10.965Z,23.80
2022-08-17T14:01:42.769Z,23.89
2022-08-17T14:04:13.787Z,24.03
2022-08-17T14:06:53.335Z,24.04
2022-08-17T14:09:23.581Z,24.03
2022-08-17T14:11:51.345Z,23.96
2022-08-17T14:14:20.317Z,23.90
2022-08-17T14:16:49.279Z,23.89
2022-08-17T14:19:16.816Z,23.55
2022-08-17T14:21:46.489Z,23.14
2022-08-17T14:24:19.102Z,23.16
2022-08-17T14:26:46.701Z,23.00
2022-08-17T14:29:15.559Z,23.04
2022-08-17T14:31:43.183Z,23.14
2022-08-17T14:34:22.515Z,23.21
2022-08-17T14:36:51.393Z,23.23
2022-08-17T14:39:19.482Z,23.14
2022-08-17T14:41:47.156Z,23.18
2022-08-17T14:44:14.631Z,23.24
2022-08-17T14:46:43.924Z,23.24
2022-08-17T14:49:13.154Z,23.09
2022-08-17T14:51:43.866Z,23.13
2022-08-17T14:54:29.433Z,23.11
2022-08-17T14:57:11.580Z,23.10
2022-08-17T14:59:47.696Z,23.15
2022-08-17T15:02:18.304Z,23.04
2022-08-17T15:04:45.883Z,23.20
2022-08-17T15:07:14.946Z,23.26
2022-08-17T15:09:42.549Z,23.05
2022-08-17T15:12:15.857Z,22.91
2022-08-17T15:14:43.263Z,22.82
2022-08-17T15:17:10.634Z,22.95
2022-08-17T15:19:38.056Z,22.93
2022-08-17T15:22:06.822Z,23.07
2022-08-17T15:24:35.700Z,22.96
2022-08-17T15:27:03.109Z,22.85
2022-08-17T15:29:30.568Z,22.59
2022-08-17T15:32:00.699Z,22.55
2022-08-17T15:34:28.370Z,22.57
2022-08-17T15:36:55.823Z,22.37
2022-08-17T15:39:23.269Z,22.40
2022-08-17T15:41:58.780Z,22.13
2022-08-17T15:44:30.202Z,22.43
2022-08-17T15:47:02.545Z,22.45
2022-08-17T15:49:29.953Z,22.42
2022-08-17T15:51:57.399Z,22.38
2022-08-17T15:54:24.803Z,22.53
2022-08-17T15:57:03.600Z,22.43
2022-08-17T15:59:31.040Z,22.27
2022-08-17T16:03:15.301Z,22.06
2022-08-17T16:04:45.864Z,22.19
2022-08-17T16:07:15.431Z,22.15
2022-08-17T16:09:42.886Z,22.23
2022-08-17T16:12:13.622Z,22.29
2022-08-17T16:14:41.109Z,22.06
2022-08-17T16:17:39.003Z,22.16
2022-08-17T16:19:56.074Z,22.14
2022-08-17T16:22:31.230Z,22.16
2022-08-17T16:24:59.051Z,22.08
2022-08-17T16:27:27.928Z,21.84
2022-08-17T16:29:55.586Z,21.85
2022-08-17T16:32:31.842Z,21.82
2022-08-17T16:35:02.763Z,21.81
2022-08-17T16:37:30.528Z,21.89
2022-08-17T16:40:01.822Z,21.92
2022-08-17T16:42:32.628Z,21.79
2022-08-17T16:45:04.717Z,21.87
2022-08-17T16:47:32.329Z,21.72
2022-08-17T16:50:00.152Z,21.67
2022-08-17T16:52:32.509Z,21.87
2022-08-17T16:55:01.907Z,21.78
2022-08-17T16:57:30.942Z,22.01
2022-08-17T16:59:58.979Z,22.02
2022-08-17T17:02:31.366Z,22.13
2022-08-17T17:05:05.696Z,21.99
2022-08-17T17:07:52.995Z,21.97
2022-08-17T17:10:29.187Z,21.85
2022-08-17T17:13:03.730Z,22.12
2022-08-17T17:15:45.696Z,22.20
2022-08-17T17:18:15.999Z,22.07
2022-08-17T17:20:52.472Z,22.16
2022-08-17T17:23:35.283Z,22.17
2022-08-17T17:26:11.752Z,22.09
2022-08-17T17:28:53.018Z,21.90
2022-08-17T17:31:22.711Z,21.84
2022-08-17T17:33:51.860Z,21.83
2022-08-17T17:36:26.124Z,21.70
2022-08-17T17:38:58.692Z,22.09
2022-08-17T17:41:30.479Z,22.43
2022-08-17T17:44:07.566Z,22.72
2022-08-17T17:46:39.622Z,22.93
2022-08-17T17:49:07.039Z,22.89
2022-08-17T17:52:02.912Z,22.88
2022-08-17T17:54:43.716Z,22.95
2022-08-17T17:57:19.728Z,23.03
2022-08-17T17:59:56.228Z,23.03
2022-08-17T18:02:37.808Z,23.16
2022-08-17T18:05:17.603Z,23.02
2022-08-17T18:07:52.881Z,23.04
2022-08-17T18:10:30.544Z,22.99
2022-08-17T18:13:08.336Z,23.00
2022-08-17T18:15:44.212Z,23.02
2022-08-17T18:18:36.476Z,23.11
2022-08-17T18:21:10.186Z,23.07
2022-08-17T18:23:45.505Z,23.08
2022-08-17T18:26:13.005Z,23.05
2022-08-17T18:28:42.057Z,22.93
2022-08-17T18:31:15.753Z,23.03
2022-08-17T18:33:44.851Z,22.93
2022-08-17T18:36:25.649Z,22.90
2022-08-17T18:39:11.013Z,22.96
2022-08-17T18:41:42.240Z,23.03
2022-08-17T18:44:23.565Z,23.02
2022-08-17T18:47:07.218Z,22.96
2022-08-17T18:49:35.494Z,22.95
2022-08-17T18:52:13.994Z,23.02
2022-08-17T18:54:59.520Z,22.99
2022-08-17T18:57:31.859Z,22.98
2022-08-17T18:59:59.833Z,22.96
2022-08-17T19:02:45.055Z,22.94
2022-08-17T19:05:27.453Z,23.01
2022-08-17T19:08:13.852Z,23.07
2022-08-17T19:10:46.149Z,23.02
2022-08-17T19:13:24.025Z,22.95
2022-08-17T19:16:12.247Z,22.93
2022-08-17T19:18:50.740Z,22.95
2022-08-17T19:21:22.969Z,23.05
2022-08-17T19:23:55.770Z,22.99
2022-08-17T19:26:53.398Z,22.93
2022-08-17T19:29:19.612Z,22.58
2022-08-17T19:31:50.315Z,22.49
2022-08-17T19:34:30.018Z,22.65
2022-08-17T19:37:05.873Z,22.76
2022-08-17T19:39:42.955Z,22.68
2022-08-17T19:42:16.308Z,22.72
2022-08-17T19:44:54.829Z,22.53
2022-08-17T19:47:53.186Z,22.67
2022-08-17T19:50:25.530Z,22.72
2022-08-17T19:52:59.472Z,22.73
2022-08-17T19:55:36.933Z,22.71
2022-08-17T19:58:11.142Z,22.61
2022-08-17T20:00:50.580Z,22.65
2022-08-17T20:03:23.157Z,22.65
2022-08-17T20:06:11.999Z,22.72
2022-08-17T20:08:57.136Z,22.60
2022-08-17T20:11:31.552Z,22.54
2022-08-17T20:14:04.095Z,22.50
2022-08-17T20:16:33.161Z,22.69
2022-08-17T20:19:04.898Z,22.50
2022-08-17T20:21:40.489Z,22.54
2022-08-17T20:24:20.844Z,22.67
2022-08-17T20:26:58.326Z,22.71
2022-08-17T20:29:39.604Z,22.76
2022-08-17T20:32:24.450Z,22.61
2022-08-17T20:35:02.965Z,22.68
2022-08-17T20:37:34.119Z,22.55
2022-08-17T20:40:21.127Z,22.80
2022-08-17T20:42:49.051Z,22.63
2022-08-17T20:45:50.781Z,22.81
2022-08-17T20:48:37.327Z,22.71
2022-08-17T20:51:25.660Z,22.79
2022-08-17T20:54:28.540Z,22.78
2022-08-17T20:56:58.866Z,22.65
2022-08-17T20:59:54.902Z,22.69
2022-08-17T21:02:24.676Z,22.69
2022-08-17T21:05:34.344Z,22.70
2022-08-17T21:08:13.649Z,22.73
2022-08-17T21:10:43.713Z,22.69
2022-08-17T21:13:52.579Z,22.69
2022-08-17T21:16:39.058Z,22.68
2022-08-17T21:19:22.203Z,22.68
2022-08-17T21:22:01.394Z,22.58
2022-08-17T21:24:42.595Z,22.63
2022-08-17T21:27:28.579Z,22.61
2022-08-17T21:30:20.763Z,22.58
2022-08-17T21:33:23.191Z,22.54
2022-08-17T21:35:53.949Z,22.47
2022-08-17T21:38:34.549Z,22.46
2022-08-17T21:41:02.163Z,22.48
2022-08-17T21:43:34.044Z,22.47
2022-08-17T21:46:04.430Z,22.41
2022-08-17T21:48:40.687Z,22.43
2022-08-17T21:51:12.357Z,22.30
2022-08-17T21:53:46.871Z,22.33
2022-08-17T21:56:24.258Z,22.27
2022-08-17T21:58:59.662Z,22.24
2022-08-17T22:01:30.506Z,22.25
2022-08-17T22:04:01.503Z,22.24
2022-08-17T22:06:35.701Z,22.22
2022-08-17T22:09:16.980Z,22.22
2022-08-17T22:11:50.479Z,22.14
2022-08-17T22:14:19.870Z,22.16
2022-08-17T22:16:48.757Z,22.16
2022-08-17T22:19:16.416Z,22.17
2022-08-17T22:21:43.821Z,22.05
2022-08-17T22:24:18.447Z,22.10
2022-08-17T22:27:02.696Z,22.10
2022-08-17T22:29:53.331Z,22.14
2022-08-17T22:32:34.176Z,22.09
2022-08-17T22:35:32.286Z,22.08
2022-08-17T22:38:30.729Z,22.03
2022-08-17T22:41:30.343Z,21.98
2022-08-17T22:43:58.795Z,21.94
2022-08-17T22:46:27.640Z,21.93
2022-08-17T22:48:57.403Z,22.03
2022-08-17T22:51:28.417Z,21.97
2022-08-17T22:54:00.087Z,21.89
2022-08-17T22:56:27.702Z,21.95
2022-08-17T22:58:58.863Z,21.90
2022-08-17T23:01:31.011Z,21.94
2022-08-17T23:04:00.421Z,21.88
2022-08-17T23:06:28.645Z,21.80
2022-08-17T23:08:56.381Z,21.73
2022-08-17T23:11:42.830Z,21.62
2022-08-17T23:14:13.391Z,21.65
2022-08-17T23:16:42.944Z,21.65
2022-08-17T23:19:11.212Z,21.62
2022-08-17T23:21:39.076Z,21.64
2022-08-17T23:24:07.045Z,21.68
2022-08-17T23:26:35.958Z,21.67
2022-08-17T23:29:03.710Z,21.69
2022-08-17T23:31:31.527Z,21.67
2022-08-17T23:34:00.954Z,21.63
2022-08-17T23:36:28.341Z,21.63
2022-08-17T23:38:55.749Z,21.70
2022-08-17T23:41:24.072Z,21.67
2022-08-17T23:43:52.935Z,21.64
2022-08-17T23:46:20.446Z,21.63
2022-08-17T23:48:48.228Z,21.55
2022-08-17T23:51:20.995Z,21.56
2022-08-17T23:53:51.858Z,21.60
2022-08-17T23:56:19.459Z,21.66
2022-08-17T23:58:46.831Z,21.66
